Time;durP1;ratioP1;P1;durP2;ratioP2;P2;SDS_P1;SDS_P2;PMS_P1;PMS_P2;Temp;Humidity;BMP_temperature;BMP_pressure;BME280_temperature;BME280_humidity;BME280_pressure;Samples;Min_cycle;Max_cycle;Signal;HPM_P1;HPM_P2
2022/09/17 00:00:33;;;;;;;0.30;0.30;;;;;;;12.55;68.51;101171.31;2089115;28;20111;-67
2022/09/17 00:01:36;;;;;;;0.30;0.30;;;;;;;12.53;69.27;101170.88;2088586;28;20558;-67
2022/09/17 00:02:39;;;;;;;0.30;0.30;;;;;;;12.52;68.87;101169.31;2088157;28;20041;-68
2022/09/17 00:03:42;;;;;;;0.20;0.20;;;;;;;12.50;68.57;101160.72;2088942;28;20407;-67
2022/09/17 00:04:47;;;;;;;0.30;0.30;;;;;;;12.48;68.28;101163.00;2094397;28;20746;-67
2022/09/17 00:05:49;;;;;;;0.28;0.28;;;;;;;12.48;67.93;101171.13;2092197;28;20063;-67
2022/09/17 00:06:52;;;;;;;0.30;0.30;;;;;;;12.48;67.54;101173.06;2095837;28;20048;-69
2022/09/17 00:07:54;;;;;;;0.30;0.30;;;;;;;12.48;66.94;101179.25;2093916;28;20079;-68
2022/09/17 00:08:58;;;;;;;0.30;0.30;;;;;;;12.48;66.35;101181.19;2088648;28;20089;-67
2022/09/17 00:10:00;;;;;;;0.20;0.20;;;;;;;12.48;65.42;101179.25;2092425;28;20117;-67
2022/09/17 00:11:07;;;;;;;0.20;0.20;;;;;;;12.49;65.52;101182.75;2088690;28;20061;-67
2022/09/17 00:12:10;;;;;;;0.30;0.30;;;;;;;12.49;64.88;101188.97;2091726;28;20065;-67
2022/09/17 00:13:14;;;;;;;0.25;0.25;;;;;;;12.51;64.90;101188.63;2088787;28;20067;-67
2022/09/17 00:14:18;;;;;;;0.20;0.20;;;;;;;12.54;64.98;101191.41;2091938;28;20446;-68
2022/09/17 00:15:20;;;;;;;0.20;0.20;;;;;;;12.55;65.18;101195.69;2094647;28;20056;-67
2022/09/17 00:16:27;;;;;;;0.20;0.20;;;;;;;12.58;65.23;101194.22;2089029;28;20136;-67
2022/09/17 00:17:30;;;;;;;0.25;0.25;;;;;;;12.57;65.03;101192.66;2089001;28;20048;-67
2022/09/17 00:18:35;;;;;;;0.28;0.28;;;;;;;12.57;65.17;101189.94;2088482;28;20082;-67
2022/09/17 00:19:38;;;;;;;0.28;0.28;;;;;;;12.58;65.27;101192.31;2090211;28;20073;-67
2022/09/17 00:20:43;;;;;;;0.30;0.30;;;;;;;12.59;65.69;101185.75;2090670;28;20084;-67
2022/09/17 00:21:46;;;;;;;0.20;0.20;;;;;;;12.59;65.98;101188.44;2088569;28;20085;-68
2022/09/17 00:22:49;;;;;;;0.30;0.30;;;;;;;12.60;66.53;101187.34;2089035;28;20053;-68
2022/09/17 00:23:56;;;;;;;0.20;0.20;;;;;;;12.60;65.90;101187.34;2087953;28;20053;-67
2022/09/17 00:25:00;;;;;;;0.20;0.20;;;;;;;12.61;65.83;101180.78;2083554;28;20084;-67
2022/09/17 00:26:05;;;;;;;0.20;0.20;;;;;;;12.60;65.31;101181.91;2088157;28;20049;-67
2022/09/17 00:27:08;;;;;;;0.20;0.20;;;;;;;12.61;65.69;101183.47;2093904;28;20131;-68
2022/09/17 00:28:12;;;;;;;0.20;0.20;;;;;;;12.64;65.20;101182.78;2095782;28;20530;-68
2022/09/17 00:29:16;;;;;;;0.30;0.30;;;;;;;12.62;64.92;101195.88;2095647;28;20044;-67
2022/09/17 00:30:18;;;;;;;0.20;0.20;;;;;;;12.62;64.42;101189.69;2087398;28;20060;-67
2022/09/17 00:31:22;;;;;;;0.20;0.20;;;;;;;12.65;64.31;101199.84;2092409;28;20087;-68
2022/09/17 00:32:26;;;;;;;0.20;0.20;;;;;;;12.63;64.43;101194.78;2088704;28;20064;-68
2022/09/17 00:33:29;;;;;;;0.20;0.20;;;;;;;12.66;64.31;101199.50;2088361;28;20048;-68
2022/09/17 00:34:32;;;;;;;0.20;0.20;;;;;;;12.66;64.62;101196.78;2092138;28;20122;-67
2022/09/17 00:35:34;;;;;;;0.20;0.20;;;;;;;12.66;64.38;101194.06;2089274;28;20041;-68
2022/09/17 00:36:39;;;;;;;0.20;0.20;;;;;;;12.68;64.46;101199.16;2088519;28;20048;-68
2022/09/17 00:37:44;;;;;;;0.20;0.20;;;;;;;12.67;64.48;101201.06;2088686;28;20159;-68
2022/09/17 00:38:49;;;;;;;0.20;0.20;;;;;;;12.68;64.55;101199.16;2088643;28;20041;-68
2022/09/17 00:39:51;;;;;;;0.20;0.20;;;;;;;12.67;64.65;101203.75;2088993;28;20448;-69
2022/09/17 00:40:55;;;;;;;0.20;0.20;;;;;;;12.69;65.11;101196.09;2093810;28;20462;-68
2022/09/17 00:42:04;;;;;;;0.30;0.30;;;;;;;12.69;65.46;101198.81;2087898;28;20873;-68
2022/09/17 00:43:12;;;;;;;0.20;0.20;;;;;;;12.70;64.82;101202.31;2085173;28;21101;-68
2022/09/17 00:44:43;;;;;;;0.20;0.20;;;;;;;12.66;63.86;101201.41;2087667;28;20056;-68
2022/09/17 00:45:45;;;;;;;0.28;0.28;;;;;;;12.70;64.16;101194.19;2088677;28;20171;-68
2022/09/17 00:46:49;;;;;;;0.20;0.20;;;;;;;12.73;63.86;101196.97;2089502;28;20060;-68
2022/09/17 00:47:57;;;;;;;0.20;0.20;;;;;;;12.75;62.26;101219.09;2093890;28;20064;-68
2022/09/17 00:49:06;;;;;;;0.20;0.20;;;;;;;12.77;63.40;101206.00;2091929;28;20433;-68
2022/09/17 00:50:13;;;;;;;0.20;0.20;;;;;;;12.76;63.81;101207.13;2088284;28;20122;-68
2022/09/17 00:51:22;;;;;;;0.20;0.20;;;;;;;12.76;63.34;101217.97;2088240;28;20052;-68
2022/09/17 00:52:29;;;;;;;0.10;0.10;;;;;;;12.76;63.27;101203.63;2088523;28;20488;-68
2022/09/17 00:53:33;;;;;;;0.20;0.20;;;;;;;12.75;63.14;101213.66;2087806;28;20831;-68
2022/09/17 00:54:37;;;;;;;0.20;0.20;;;;;;;12.78;62.66;101217.63;2091585;28;20053;-68
2022/09/17 00:55:43;;;;;;;0.30;0.30;;;;;;;12.78;61.96;101226.53;2088723;28;20128;-68
2022/09/17 00:56:46;;;;;;;0.20;0.20;;;;;;;12.77;61.66;101224.16;2094019;28;20067;-68
2022/09/17 00:57:52;;;;;;;0.20;0.20;;;;;;;12.77;60.75;101224.97;2091586;28;20535;-69
2022/09/17 00:58:55;;;;;;;0.20;0.20;;;;;;;12.76;60.85;101222.59;2087852;28;20675;-68
2022/09/17 01:00:00;;;;;;;0.30;0.30;;;;;;;12.77;60.46;101237.69;2088377;28;20049;-68
2022/09/17 01:01:03;;;;;;;0.25;0.25;;;;;;;12.77;60.97;101233.09;2092725;28;20080;-67
2022/09/17 01:02:07;;;;;;;0.30;0.30;;;;;;;12.76;60.83;101234.22;2088499;28;20053;-67
2022/09/17 01:03:09;;;;;;;0.20;0.20;;;;;;;12.75;60.21;101232.63;2083571;28;20448;-68
2022/09/17 01:04:16;;;;;;;0.30;0.30;;;;;;;12.75;59.56;101237.28;2077885;28;20092;-69
2022/09/17 01:05:26;;;;;;;0.10;0.10;;;;;;;12.74;59.27;101230.28;2087856;28;20056;-68
2022/09/17 01:06:34;;;;;;;0.20;0.20;;;;;;;12.72;59.84;101227.91;2091953;28;20076;-66
2022/09/17 01:08:06;;;;;;;0.20;0.20;;;;;;;12.68;59.90;101224.31;2089453;28;20045;-67
2022/09/17 01:09:25;;;;;;;0.30;0.30;;;;;;;12.68;60.75;101224.31;2092825;28;20041;-68
2022/09/17 01:10:43;;;;;;;0.30;0.30;;;;;;;12.70;61.07;101219.31;2088560;28;20057;-68
2022/09/17 01:12:07;;;;;;;0.30;0.30;;;;;;;12.69;61.19;101223.19;2088564;28;20116;-67
2022/09/17 01:13:26;;;;;;;0.20;0.20;;;;;;;12.69;61.41;101225.88;2088296;28;20056;-67
2022/09/17 01:14:48;;;;;;;0.20;0.20;;;;;;;12.65;62.13;101206.06;2088368;28;20079;-67
2022/09/17 01:15:59;;;;;;;0.20;0.20;;;;;;;12.66;60.39;101225.78;2088162;28;20049;-69
2022/09/17 01:17:15;;;;;;;0.20;0.20;;;;;;;12.67;61.07;101211.13;2088325;28;20060;-68
2022/09/17 01:18:39;;;;;;;0.20;0.20;;;;;;;12.67;60.82;101217.31;2092713;28;20094;-68
2022/09/17 01:20:24;;;;;;;0.20;0.20;;;;;;;12.63;60.68;101227.28;2088688;28;20049;-69
2022/09/17 01:21:45;;;;;;;0.20;0.20;;;;;;;12.66;59.73;101236.63;2085547;28;20128;-68
2022/09/17 01:23:04;;;;;;;0.20;0.20;;;;;;;12.68;57.88;101246.00;2091089;28;20044;-67
2022/09/17 01:24:49;;;;;;;0.20;0.20;;;;;;;12.64;57.74;101247.00;2088399;28;20049;-67
2022/09/17 01:26:08;;;;;;;0.20;0.20;;;;;;;12.66;57.37;101250.97;2088525;28;20449;-67
2022/09/17 01:27:48;;;;;;;0.20;0.20;;;;;;;12.63;57.36;101248.16;2088722;28;20147;-68
2022/09/17 01:28:58;;;;;;;0.20;0.20;;;;;;;12.63;57.86;101245.44;2098911;28;20092;-67
2022/09/17 01:30:21;;;;;;;0.20;0.20;;;;;;;12.60;57.59;101249.63;2086471;28;20136;-67
2022/09/17 01:31:34;;;;;;;0.20;0.20;;;;;;;12.63;58.60;101240.81;2087864;28;20064;-68
2022/09/17 01:32:45;;;;;;;0.20;0.20;;;;;;;12.69;59.95;101231.31;2088045;28;20091;-68
2022/09/17 01:33:57;;;;;;;0.20;0.20;;;;;;;12.71;61.77;101231.75;2087652;28;20123;-68
2022/09/17 01:35:08;;;;;;;0.20;0.20;;;;;;;12.73;62.35;101212.44;2089943;28;20067;-68
2022/09/17 01:36:24;;;;;;;0.22;0.22;;;;;;;12.74;64.75;101211.31;2091454;28;20052;-68
2022/09/17 01:37:34;;;;;;;0.20;0.20;;;;;;;12.74;64.70;101209.38;2088260;28;20041;-68
2022/09/17 01:38:44;;;;;;;0.30;0.30;;;;;;;12.74;64.99;101209.38;2092384;28;20420;-68
2022/09/17 01:39:53;;;;;;;0.30;0.30;;;;;;;12.73;65.69;101204.31;2094146;28;20048;-68
2022/09/17 01:41:05;;;;;;;0.30;0.30;;;;;;;12.67;65.55;101203.75;2091187;28;20103;-68
2022/09/17 01:42:17;;;;;;;0.20;0.20;;;;;;;12.64;65.87;101203.66;2086268;28;20056;-68
2022/09/17 01:43:25;;;;;;;0.30;0.30;;;;;;;12.63;65.17;101205.59;2089030;28;20343;-68
2022/09/17 01:44:33;;;;;;;0.20;0.20;;;;;;;12.60;65.13;101211.72;2094739;28;20091;-68
2022/09/17 01:45:40;;;;;;;0.20;0.20;;;;;;;12.57;65.20;101204.28;2088258;28;20055;-68
2022/09/17 01:46:49;;;;;;;0.30;0.30;;;;;;;12.52;65.22;101204.50;2088068;28;20468;-68
2022/09/17 01:47:56;;;;;;;0.30;0.30;;;;;;;12.49;65.15;101202.50;2087663;28;20139;-68
2022/09/17 01:49:04;;;;;;;0.30;0.30;;;;;;;12.46;65.24;101205.91;2087566;28;20057;-68
2022/09/17 01:50:11;;;;;;;0.20;0.20;;;;;;;12.42;65.63;101196.88;2087893;28;20424;-67
2022/09/17 01:51:19;;;;;;;0.20;0.20;;;;;;;12.40;65.93;101199.13;2091556;28;20508;-68
2022/09/17 01:52:24;;;;;;;0.20;0.20;;;;;;;12.36;66.22;101194.75;2090455;28;20059;-68
2022/09/17 01:53:35;;;;;;;0.20;0.20;;;;;;;12.32;66.77;101191.94;2088524;28;20145;-68
2022/09/17 01:54:42;;;;;;;0.30;0.30;;;;;;;12.29;66.68;101203.44;2091623;28;20049;-68
2022/09/17 01:55:49;;;;;;;0.30;0.30;;;;;;;12.28;66.61;101212.72;2088192;28;20404;-67
2022/09/17 01:56:55;;;;;;;0.20;0.20;;;;;;;12.23;67.01;101214.84;2090818;28;20197;-67
2022/09/17 01:58:05;;;;;;;0.20;0.20;;;;;;;12.21;67.10;101228.72;2089893;28;20064;-68
2022/09/17 01:59:15;;;;;;;0.30;0.30;;;;;;;12.15;67.81;101208.44;2087629;28;20135;-67
2022/09/17 02:00:19;;;;;;;0.30;0.30;;;;;;;12.13;67.79;101218.06;2090448;28;20105;-67
2022/09/17 02:01:24;;;;;;;0.30;0.30;;;;;;;12.15;68.51;101216.56;2090426;28;20045;-67
2022/09/17 02:02:34;;;;;;;0.28;0.28;;;;;;;12.18;69.87;101204.28;2090739;28;20055;-66
2022/09/17 02:03:41;;;;;;;0.30;0.30;;;;;;;12.20;70.25;101189.25;2088029;28;20052;-66
2022/09/17 02:04:50;;;;;;;0.30;0.30;;;;;;;12.25;70.59;101190.94;2093569;28;20060;-67
2022/09/17 02:05:57;;;;;;;0.30;0.30;;;;;;;12.27;70.56;101189.50;2094269;28;20073;-67
2022/09/17 02:07:08;;;;;;;0.30;0.30;;;;;;;12.26;71.70;101196.00;2091810;28;20068;-67
2022/09/17 02:08:16;;;;;;;0.30;0.30;;;;;;;12.25;71.92;101186.31;2088032;28;20131;-67
2022/09/17 02:09:26;;;;;;;0.30;0.30;;;;;;;12.24;71.73;101190.16;2087872;28;20437;-67
2022/09/17 02:10:33;;;;;;;0.20;0.20;;;;;;;12.24;71.06;101187.44;2087852;28;20135;-67
2022/09/17 02:11:40;;;;;;;0.20;0.20;;;;;;;12.23;71.33;101196.69;2087378;28;20507;-68
2022/09/17 02:12:49;;;;;;;0.20;0.20;;;;;;;12.21;70.65;101190.06;2087689;28;20094;-68
2022/09/17 02:13:59;;;;;;;0.20;0.20;;;;;;;12.21;70.93;101185.41;2087440;28;20045;-68
2022/09/17 02:15:07;;;;;;;0.22;0.22;;;;;;;12.18;70.87;101196.94;2087891;28;20642;-67
2022/09/17 02:16:16;;;;;;;0.20;0.20;;;;;;;12.16;70.18;101193.81;2087897;28;20122;-67
2022/09/17 02:17:26;;;;;;;0.20;0.20;;;;;;;12.14;70.34;101198.75;2087447;28;20488;-67
2022/09/17 02:18:36;;;;;;;0.30;0.30;;;;;;;12.11;70.67;101196.75;2088508;28;20697;-68
2022/09/17 02:19:41;;;;;;;0.30;0.30;;;;;;;12.11;70.00;101207.56;2087676;28;20056;-68
2022/09/17 02:20:47;;;;;;;0.22;0.22;;;;;;;12.10;70.23;101203.25;2088251;28;20037;-68
2022/09/17 02:22:00;;;;;;;0.20;0.20;;;;;;;12.07;70.25;101195.81;2089755;28;20052;-67
2022/09/17 02:23:07;;;;;;;0.30;0.30;;;;;;;12.06;69.62;101199.69;2087858;28;20536;-69
2022/09/17 02:24:17;;;;;;;0.20;0.20;;;;;;;12.05;69.82;101193.47;2087924;28;20106;-68
2022/09/17 02:25:26;;;;;;;0.20;0.20;;;;;;;12.05;69.48;101206.19;2087757;28;20053;-68
2022/09/17 02:26:30;;;;;;;0.30;0.30;;;;;;;12.02;69.36;101199.56;2087853;28;20049;-68
2022/09/17 02:27:46;;;;;;;0.30;0.30;;;;;;;11.99;68.65;101194.84;2087339;28;20539;-67
2022/09/17 02:28:55;;;;;;;0.30;0.30;;;;;;;12.01;68.88;101202.63;2088565;28;20519;-67
2022/09/17 02:29:57;;;;;;;0.25;0.25;;;;;;;12.01;68.70;101205.31;2088773;28;20057;-67
2022/09/17 02:31:01;;;;;;;0.20;0.20;;;;;;;12.02;68.47;101198.75;2092328;28;20763;-68
2022/09/17 02:32:04;;;;;;;0.20;0.20;;;;;;;12.04;68.49;101199.22;2087900;28;20049;-68
2022/09/17 02:33:12;;;;;;;0.20;0.20;;;;;;;12.06;68.03;101205.09;2087491;28;20141;-67
2022/09/17 02:34:16;;;;;;;0.28;0.28;;;;;;;12.07;67.62;101193.13;2087440;28;20420;-68
2022/09/17 02:35:20;;;;;;;0.20;0.20;;;;;;;12.11;67.64;101195.94;2092418;28;20057;-68
2022/09/17 02:36:23;;;;;;;0.20;0.20;;;;;;;12.14;67.65;101206.88;2094684;28;20060;-67
2022/09/17 02:37:27;;;;;;;0.22;0.22;;;;;;;12.16;67.18;101198.41;2087680;28;20495;-69
2022/09/17 02:38:29;;;;;;;0.20;0.20;;;;;;;12.19;66.92;101208.56;2088693;28;20061;-67
2022/09/17 02:39:33;;;;;;;0.20;0.20;;;;;;;12.24;66.58;101217.22;2087577;28;20064;-67
2022/09/17 02:40:53;;;;;;;0.28;0.28;;;;;;;12.24;66.59;101211.03;2089564;28;20129;-68
2022/09/17 02:42:07;;;;;;;0.30;0.30;;;;;;;12.28;65.95;101223.53;2087656;28;20056;-67
2022/09/17 02:43:19;;;;;;;0.20;0.20;;;;;;;12.34;66.06;101227.56;2092879;28;20052;-67
2022/09/17 02:44:32;;;;;;;0.20;0.20;;;;;;;12.36;66.57;101214.50;2088526;28;20060;-67
2022/09/17 02:45:46;;;;;;;0.30;0.30;;;;;;;12.37;67.53;101207.94;2088044;28;20044;-67
2022/09/17 02:47:06;;;;;;;0.30;0.30;;;;;;;12.37;68.76;101209.88;2087059;28;20558;-67
2022/09/17 02:48:27;;;;;;;0.20;0.20;;;;;;;12.33;68.57;101203.56;2087649;28;20044;-68
2022/09/17 02:49:59;;;;;;;0.22;0.22;;;;;;;12.29;69.01;101198.03;2088161;28;20053;-67
2022/09/17 02:51:19;;;;;;;0.20;0.20;;;;;;;12.27;69.36;101194.91;2087923;28;20053;-67
2022/09/17 02:52:36;;;;;;;0.30;0.30;;;;;;;12.27;69.20;101194.91;2087752;28;20742;-67
2022/09/17 02:53:47;;;;;;;0.20;0.20;;;;;;;12.28;69.12;101191.06;2095079;28;20492;-68
2022/09/17 02:55:01;;;;;;;0.20;0.20;;;;;;;12.27;69.13;101189.50;2088935;28;20049;-67
2022/09/17 02:56:12;;;;;;;0.30;0.30;;;;;;;12.27;69.42;101191.41;2089740;28;20457;-68
2022/09/17 02:57:21;;;;;;;0.30;0.30;;;;;;;12.26;69.25;101185.19;2087944;28;20625;-67
2022/09/17 02:58:27;;;;;;;0.30;0.30;;;;;;;12.26;69.69;101185.19;2087838;28;20053;-67
2022/09/17 02:59:34;;;;;;;0.30;0.30;;;;;;;12.25;69.78;101185.53;2091131;28;20045;-69
2022/09/17 03:00:36;;;;;;;0.30;0.30;;;;;;;12.24;69.40;101184.72;2092349;28;20132;-68
2022/09/17 03:01:46;;;;;;;0.20;0.20;;;;;;;12.23;69.52;101188.59;2095238;28;20055;-67
2022/09/17 03:02:55;;;;;;;0.30;0.30;;;;;;;12.21;69.11;101188.13;2087390;28;20083;-67
2022/09/17 03:04:02;;;;;;;0.30;0.30;;;;;;;12.20;68.96;101183.06;2090646;28;20119;-67
2022/09/17 03:05:07;;;;;;;0.30;0.30;;;;;;;12.18;68.52;101188.81;2087676;28;20049;-68
2022/09/17 03:06:10;;;;;;;0.30;0.30;;;;;;;12.18;68.53;101194.22;2091274;28;20676;-68
2022/09/17 03:07:13;;;;;;;0.30;0.30;;;;;;;12.17;67.79;101192.66;2087687;28;20114;-68
2022/09/17 03:08:19;;;;;;;0.20;0.20;;;;;;;12.18;67.61;101196.94;2087951;28;20046;-68
2022/09/17 03:09:21;;;;;;;0.38;0.38;;;;;;;12.18;67.41;101213.16;2087750;28;20135;-67
2022/09/17 03:10:29;;;;;;;0.30;0.30;;;;;;;12.21;66.84;101217.91;2087696;28;20433;-67
2022/09/17 03:11:31;;;;;;;0.22;0.22;;;;;;;12.26;67.17;101233.91;2087046;28;20056;-67
2022/09/17 03:12:36;;;;;;;0.20;0.20;;;;;;;12.30;67.23;101242.94;2086997;28;20116;-67
2022/09/17 03:13:38;;;;;;;0.20;0.20;;;;;;;12.30;68.44;101225.91;2094369;28;20047;-67
2022/09/17 03:14:42;;;;;;;0.30;0.30;;;;;;;12.28;68.97;101215.41;2093041;28;20417;-67
2022/09/17 03:15:44;;;;;;;0.30;0.30;;;;;;;12.23;69.07;101221.06;2090212;28;20044;-67
2022/09/17 03:16:48;;;;;;;0.20;0.20;;;;;;;12.17;68.61;101213.50;2087619;28;20125;-67
2022/09/17 03:17:50;;;;;;;0.20;0.20;;;;;;;12.11;68.88;101212.97;2087619;28;20044;-68
2022/09/17 03:18:56;;;;;;;0.20;0.20;;;;;;;12.05;68.99;101211.63;2094547;28;20057;-67
2022/09/17 03:19:58;;;;;;;0.30;0.30;;;;;;;12.01;68.86;101206.13;2087934;28;20531;-67
2022/09/17 03:21:05;;;;;;;0.20;0.20;;;;;;;11.97;68.79;101201.72;2087688;28;20109;-66
2022/09/17 03:22:08;;;;;;;0.30;0.30;;;;;;;11.95;69.30;101195.88;2093607;28;20052;-67
2022/09/17 03:23:12;;;;;;;0.20;0.20;;;;;;;11.88;69.27;101196.44;2092488;28;21467;-67
2022/09/17 03:24:14;;;;;;;0.28;0.28;;;;;;;11.86;69.38;101192.50;2087350;28;20054;-67
2022/09/17 03:25:17;;;;;;;0.30;0.30;;;;;;;11.85;69.22;101193.63;2088070;28;20128;-67
2022/09/17 03:26:20;;;;;;;0.30;0.30;;;;;;;11.84;69.51;101189.34;2087445;28;20057;-67
2022/09/17 03:27:23;;;;;;;0.20;0.20;;;;;;;11.83;69.79;101193.94;2089013;28;20052;-67
2022/09/17 03:28:25;;;;;;;0.20;0.20;;;;;;;11.84;69.41;101192.03;2088887;28;20575;-68
2022/09/17 03:29:28;;;;;;;0.20;0.20;;;;;;;11.82;70.41;101199.69;2089465;28;20049;-67
2022/09/17 03:30:31;;;;;;;0.20;0.20;;;;;;;11.79;70.15;101194.97;2089521;28;20049;-68
2022/09/17 03:31:34;;;;;;;0.20;0.20;;;;;;;11.82;69.77;101191.59;2093518;28;20052;-67
2022/09/17 03:32:37;;;;;;;0.30;0.30;;;;;;;11.81;70.26;101190.03;2093026;28;20048;-68
2022/09/17 03:33:39;;;;;;;0.30;0.30;;;;;;;11.82;69.97;101194.28;2088348;28;20049;-68
2022/09/17 03:34:42;;;;;;;0.30;0.30;;;;;;;11.83;70.43;101203.97;2089361;28;20040;-68
2022/09/17 03:35:44;;;;;;;0.30;0.30;;;;;;;11.83;71.10;101202.06;2094712;28;20060;-68
2022/09/17 03:36:49;;;;;;;0.30;0.30;;;;;;;11.86;70.91;101206.03;2092199;28;20056;-68
2022/09/17 03:37:51;;;;;;;0.30;0.30;;;;;;;11.87;70.97;101199.47;2088876;28;20056;-66
2022/09/17 03:38:55;;;;;;;0.30;0.30;;;;;;;11.89;71.02;101200.69;2089138;28;20064;-67
2022/09/17 03:39:57;;;;;;;0.20;0.20;;;;;;;11.89;71.17;101194.53;2088391;28;20572;-68
2022/09/17 03:41:00;;;;;;;0.30;0.30;;;;;;;11.90;70.92;101194.19;2090872;28;20045;-67
2022/09/17 03:42:03;;;;;;;0.30;0.30;;;;;;;11.89;71.07;101194.53;2092880;28;20056;-67
2022/09/17 03:43:06;;;;;;;0.30;0.30;;;;;;;11.92;71.32;101191.13;2091748;28;20049;-67
2022/09/17 03:44:09;;;;;;;0.30;0.30;;;;;;;11.92;70.76;101199.25;2094511;28;20121;-68
2022/09/17 03:45:12;;;;;;;0.30;0.30;;;;;;;11.94;70.79;101196.97;2090571;28;20053;-67
2022/09/17 03:46:14;;;;;;;0.30;0.30;;;;;;;11.97;70.64;101196.31;2090191;28;20041;-67
2022/09/17 03:47:16;;;;;;;0.20;0.20;;;;;;;11.97;70.46;101197.09;2088057;28;20132;-68
2022/09/17 03:48:18;;;;;;;0.28;0.28;;;;;;;11.98;69.88;101203.28;2080250;28;20069;-68
2022/09/17 03:49:23;;;;;;;0.20;0.20;;;;;;;12.00;70.26;101206.47;2091902;28;20069;-68
2022/09/17 03:50:25;;;;;;;0.20;0.20;;;;;;;11.99;70.26;101210.28;2088913;28;20550;-68
2022/09/17 03:51:28;;;;;;;0.30;0.30;;;;;;;12.00;69.68;101206.47;2090564;28;20071;-67
2022/09/17 03:52:31;;;;;;;0.25;0.25;;;;;;;12.01;69.89;101226.97;2090996;28;20052;-67
2022/09/17 03:53:34;;;;;;;0.30;0.30;;;;;;;12.01;70.26;101218.84;2095290;28;20060;-67
2022/09/17 03:54:36;;;;;;;0.30;0.30;;;;;;;11.99;70.90;101196.75;2088922;28;20076;-68
2022/09/17 03:55:39;;;;;;;0.30;0.30;;;;;;;12.01;71.12;101194.50;2088783;28;20489;-67
2022/09/17 03:56:41;;;;;;;0.30;0.30;;;;;;;11.99;71.19;101197.53;2090646;28;20099;-67
2022/09/17 03:57:44;;;;;;;0.25;0.25;;;;;;;11.97;71.24;101196.31;2093895;28;20060;-68
2022/09/17 03:58:46;;;;;;;0.30;0.30;;;;;;;11.98;71.93;101190.56;2095606;28;20055;-67
2022/09/17 03:59:49;;;;;;;0.30;0.30;;;;;;;11.96;72.54;101184.69;2096720;28;20052;-65
2022/09/17 04:00:52;;;;;;;0.30;0.30;;;;;;;11.98;72.08;101187.06;2090677;28;20057;-66
2022/09/17 04:01:55;;;;;;;0.28;0.28;;;;;;;11.97;72.20;101196.31;2088807;28;20508;-66
2022/09/17 04:02:57;;;;;;;0.30;0.30;;;;;;;11.95;72.09;101188.53;2089149;28;20045;-67
2022/09/17 04:04:00;;;;;;;0.28;0.28;;;;;;;11.93;71.66;101190.78;2088799;28;20118;-66
2022/09/17 04:05:02;;;;;;;0.30;0.30;;;;;;;11.90;71.73;101199.59;2089110;28;20059;-66
2022/09/17 04:06:05;;;;;;;0.30;0.30;;;;;;;11.87;71.39;101194.88;2089043;28;20060;-67
2022/09/17 04:07:07;;;;;;;0.25;0.25;;;;;;;11.85;70.98;101193.63;2089259;28;20500;-67
2022/09/17 04:08:11;;;;;;;0.38;0.38;;;;;;;11.84;70.96;101192.81;2088946;28;20052;-67
2022/09/17 04:09:13;;;;;;;0.30;0.30;;;;;;;11.81;71.40;101192.72;2088106;28;20072;-66
2022/09/17 04:10:16;;;;;;;0.30;0.30;;;;;;;11.80;71.42;101191.94;2088354;28;20053;-67
2022/09/17 04:11:18;;;;;;;0.30;0.30;;;;;;;11.80;71.36;101191.94;2095093;28;20362;-67
2022/09/17 04:12:21;;;;;;;0.30;0.30;;;;;;;11.80;71.37;101194.63;2089610;28;20053;-67
2022/09/17 04:13:23;;;;;;;0.30;0.30;;;;;;;11.79;71.49;101195.78;2088575;28;20516;-67
2022/09/17 04:14:26;;;;;;;0.28;0.28;;;;;;;11.77;71.67;101191.81;2089911;28;20045;-67
2022/09/17 04:15:27;;;;;;;0.30;0.30;;;;;;;11.75;71.71;101184.03;2089260;28;20389;-67
2022/09/17 04:16:30;;;;;;;0.30;0.30;;;;;;;11.76;71.41;101190.25;2092084;28;20059;-67
2022/09/17 04:17:32;;;;;;;0.20;0.20;;;;;;;11.74;71.44;101197.91;2088812;28;20053;-67
2022/09/17 04:18:35;;;;;;;0.32;0.32;;;;;;;11.75;71.47;101199.47;2091622;28;20573;-68
2022/09/17 04:19:37;;;;;;;0.35;0.35;;;;;;;11.73;71.38;101190.94;2095470;28;20048;-68
2022/09/17 04:20:40;;;;;;;0.30;0.30;;;;;;;11.74;72.04;101192.50;2088842;28;20053;-67
2022/09/17 04:21:42;;;;;;;0.35;0.35;;;;;;;11.73;71.74;101188.22;2088652;28;20057;-67
2022/09/17 04:22:45;;;;;;;0.28;0.28;;;;;;;11.74;71.75;101197.91;2088692;28;20068;-68
2022/09/17 04:23:48;;;;;;;0.30;0.30;;;;;;;11.76;71.63;101195.66;2088858;28;20045;-67
2022/09/17 04:24:51;;;;;;;0.20;0.20;;;;;;;11.76;71.99;101193.75;2093259;28;20045;-67
2022/09/17 04:25:52;;;;;;;0.30;0.30;;;;;;;11.78;71.78;101193.41;2088809;28;20060;-67
2022/09/17 04:26:55;;;;;;;0.30;0.30;;;;;;;11.80;71.80;101191.13;2088696;28;20060;-67
2022/09/17 04:27:57;;;;;;;0.30;0.30;;;;;;;11.81;71.95;101193.50;2088507;28;20063;-67
2022/09/17 04:29:00;;;;;;;0.30;0.30;;;;;;;11.84;71.87;101192.03;2090140;28;20079;-68
2022/09/17 04:30:02;;;;;;;0.25;0.25;;;;;;;11.85;71.79;101193.63;2090649;28;20096;-68
2022/09/17 04:31:05;;;;;;;0.30;0.30;;;;;;;11.86;71.54;101200.63;2090114;28;20064;-67
2022/09/17 04:32:07;;;;;;;0.20;0.20;;;;;;;11.87;70.93;101200.28;2091734;28;20053;-67
2022/09/17 04:33:10;;;;;;;0.30;0.30;;;;;;;11.89;70.64;101202.63;2088034;28;20067;-67
2022/09/17 04:34:12;;;;;;;0.22;0.22;;;;;;;11.89;70.75;101199.94;2088207;28;20059;-68
2022/09/17 04:35:16;;;;;;;0.30;0.30;;;;;;;11.89;70.67;101191.81;2088696;28;20052;-68
2022/09/17 04:36:17;;;;;;;0.30;0.30;;;;;;;11.89;70.28;101199.94;2088563;28;20052;-68
2022/09/17 04:37:20;;;;;;;0.30;0.30;;;;;;;11.89;69.92;101200.69;2091869;28;20416;-68
2022/09/17 04:38:22;;;;;;;0.30;0.30;;;;;;;11.91;70.06;101205.78;2087247;28;20057;-68
2022/09/17 04:39:26;;;;;;;0.30;0.30;;;;;;;11.91;69.88;101203.88;2087984;28;20425;-68
2022/09/17 04:40:28;;;;;;;0.30;0.30;;;;;;;11.90;69.96;101201.50;2089328;28;20053;-68
2022/09/17 04:41:31;;;;;;;0.30;0.30;;;;;;;11.91;69.82;101213.88;2089717;28;20121;-68
2022/09/17 04:42:33;;;;;;;0.30;0.30;;;;;;;11.90;69.50;101212.31;2092325;28;20045;-68
2022/09/17 04:43:36;;;;;;;0.30;0.30;;;;;;;11.88;69.64;101203.75;2088727;28;20452;-68
2022/09/17 04:44:38;;;;;;;0.30;0.30;;;;;;;11.89;69.43;101210.75;2088569;28;20481;-68
2022/09/17 04:45:41;;;;;;;0.30;0.30;;;;;;;11.89;69.49;101216.16;2089166;28;20103;-68
2022/09/17 04:46:44;;;;;;;0.30;0.30;;;;;;;11.87;69.65;101219.22;2093230;28;20445;-68
2022/09/17 04:47:46;;;;;;;0.30;0.30;;;;;;;11.86;69.78;101222.25;2089420;28;20097;-68
2022/09/17 04:48:49;;;;;;;0.30;0.30;;;;;;;11.87;69.52;101224.63;2079833;28;20057;-68
2022/09/17 04:49:50;;;;;;;0.30;0.30;;;;;;;11.86;70.52;101219.56;2088039;28;20056;-66
2022/09/17 04:50:53;;;;;;;0.40;0.40;;;;;;;11.85;70.67;101236.91;2089219;28;20513;-67
2022/09/17 04:51:55;;;;;;;0.38;0.38;;;;;;;11.82;71.44;101221.34;2092475;28;20053;-68
2022/09/17 04:52:58;;;;;;;0.38;0.38;;;;;;;11.81;71.56;101220.53;2093963;28;20559;-68
2022/09/17 04:54:00;;;;;;;0.30;0.30;;;;;;;11.80;71.44;101216.28;2092679;28;20082;-67
2022/09/17 04:55:05;;;;;;;0.28;0.28;;;;;;;11.81;72.12;101217.06;2089024;28;20053;-67
2022/09/17 04:56:08;;;;;;;0.30;0.30;;;;;;;11.77;73.46;101214.25;2088596;28;20048;-67
2022/09/17 04:57:10;;;;;;;0.30;0.30;;;;;;;11.77;73.69;101216.94;2088311;28;20052;-68
2022/09/17 04:58:12;;;;;;;0.30;0.30;;;;;;;11.78;74.39;101213.13;2090540;28;20044;-67
2022/09/17 04:59:15;;;;;;;0.30;0.30;;;;;;;11.79;74.50;101208.50;2091673;28;20143;-68
2022/09/17 05:00:18;;;;;;;0.38;0.38;;;;;;;11.78;75.29;101193.41;2088509;28;20122;-67
2022/09/17 05:01:21;;;;;;;0.30;0.30;;;;;;;11.77;74.70;101198.03;2087648;28;20057;-68
2022/09/17 05:02:23;;;;;;;0.30;0.30;;;;;;;11.76;74.29;101201.06;2090684;28;20129;-67
2022/09/17 05:03:26;;;;;;;0.30;0.30;;;;;;;11.74;73.69;101193.28;2095037;28;20488;-67
2022/09/17 05:04:28;;;;;;;0.25;0.25;;;;;;;11.75;72.70;101196.75;2088858;28;20126;-67
2022/09/17 05:05:31;;;;;;;0.30;0.30;;;;;;;11.71;70.53;101222.94;2088215;28;20052;-67
2022/09/17 05:06:33;;;;;;;0.30;0.30;;;;;;;11.70;71.17;101215.94;2088643;28;20063;-68
2022/09/17 05:07:38;;;;;;;0.40;0.40;;;;;;;11.69;71.47;101220.56;2090683;28;20159;-67
2022/09/17 05:08:40;;;;;;;0.40;0.40;;;;;;;11.67;71.63;101222.81;2093397;28;20080;-67